Time;durP1;ratioP1;P1;durP2;ratioP2;P2;SDS_P1;SDS_P2;PMS_P1;PMS_P2;Temp;Humidity;BMP_temperature;BMP_pressure;BME280_temperature;BME280_humidity;BME280_pressure;Samples;Min_cycle;Max_cycle;Signal;HPM_P1;HPM_P2
2023/03/02 00:03:35;;;;;;;;;;;;;;;;;;;;;
2023/03/02 00:06:07;;;;;;;;;;;;;;;19.09;17.17;98930.09;4951708;28;20387;-86
2023/03/02 00:08:40;;;;;;;;;;;;;;;19.49;16.82;98924.56;4933094;28;20014;-86
2023/03/02 00:11:23;;;;;;;;;;;;;;;19.83;16.72;98926.09;4945110;28;19926;-86
2023/03/02 00:14:01;;;;;;;;;;;;;;;;;;;;;
2023/03/02 00:16:33;;;;;;;;;;;;;;;20.23;16.28;98924.44;5009142;28;19928;-86
2023/03/02 00:19:07;;;;;;;;;;;;;;;19.52;16.83;98932.16;4996083;28;19918;-86
2023/03/02 00:21:49;;;;;;;;;;;;;;;18.73;17.83;98939.97;5001930;28;19925;-86
2023/03/02 00:24:15;;;;;;;;;;;;;;;18.85;17.84;98936.97;5014040;28;20405;-86
2023/03/02 00:26:41;;;;;;;;;;;;;;;19.31;17.85;98932.72;5012160;28;20369;-86
2023/03/02 00:29:07;;;;;;;;;;;;;;;19.83;17.36;98942.03;5018745;28;19921;-86
2023/03/02 00:31:36;;;;;;;;;;;;;;;20.20;17.29;98934.34;5042347;28;19983;-86
2023/03/02 00:34:02;;;;;;;;;;;;;;;19.77;16.77;98938.78;5015238;28;19944;-86
2023/03/02 00:36:32;;;;;;;;;;;;;;;19.60;16.87;98939.44;5010971;28;19932;-86
2023/03/02 00:38:58;;;;;;;;;;;;;;;19.08;17.08;98932.06;5000948;28;19929;-86
2023/03/02 00:41:24;;;;;;;;;;;;;;;19.17;17.67;98940.13;5032276;28;20435;-86
2023/03/02 00:43:52;;;;;;;;;;;;;;;19.57;17.34;98931.03;5015340;28;19947;-86
2023/03/02 00:46:21;;;;;;;;;;;;;;;19.81;17.07;98931.25;5014924;28;19927;-86
2023/03/02 00:48:47;;;;;;;;;;;;;;;20.06;16.62;98925.09;5012296;28;19928;-86
2023/03/02 00:51:17;;;;;;;;;;;;;;;20.14;16.79;98919.16;5011425;28;20842;-86
2023/03/02 00:53:43;;;;;;;;;;;;;;;20.34;16.36;98928.91;5030496;28;19921;-86
2023/03/02 00:56:09;;;;;;;;;;;;;;;20.45;16.53;98918.63;5013010;28;19917;-86
2023/03/02 00:58:39;;;;;;;;;;;;;;;20.15;16.02;98922.75;5033245;28;20015;-86
2023/03/02 01:01:10;;;;;;;;;;;;;;;19.37;16.93;98913.69;5006572;28;20075;-86
2023/03/02 01:03:36;;;;;;;;;;;;;;;19.25;17.27;98917.53;5031253;28;20011;-86
2023/03/02 01:06:03;;;;;;;;;;;;;;;19.24;17.04;98907.59;5030230;28;20392;-86
2023/03/02 01:08:29;;;;;;;;;;;;;;;19.51;16.85;98908.28;5027097;28;19921;-86
2023/03/02 01:10:56;;;;;;;;;;;;;;;19.78;16.79;98909.75;5026674;28;20281;-86
2023/03/02 01:13:22;;;;;;;;;;;;;;;19.89;16.40;98909.81;5030085;28;20348;-86
2023/03/02 01:15:48;;;;;;;;;;;;;;;19.99;16.54;98909.09;5014929;28;20340;-86
2023/03/02 01:18:14;;;;;;;;;;;;;;;19.89;16.44;98901.44;5031916;28;19979;-86
2023/03/02 01:20:40;;;;;;;;;;;;;;;19.69;17.08;98900.91;5031925;28;19921;-86
2023/03/02 01:23:06;;;;;;;;;;;;;;;19.47;16.65;98899.09;5011959;28;19917;-86
2023/03/02 01:25:32;;;;;;;;;;;;;;;19.18;17.17;98900.75;5015248;28;19917;-86
2023/03/02 01:27:58;;;;;;;;;;;;;;;19.27;16.92;98904.06;5031922;28;19921;-86
2023/03/02 01:30:24;;;;;;;;;;;;;;;19.60;17.52;98900.44;5010589;28;20308;-86
2023/03/02 01:32:50;;;;;;;;;;;;;;;19.59;16.91;98900.78;5021355;28;19922;-86
2023/03/02 01:35:16;;;;;;;;;;;;;;;19.82;16.90;98896.63;5025690;28;19921;-86
2023/03/02 01:37:42;;;;;;;;;;;;;;;19.68;16.64;98898.47;5026771;28;19921;-86
2023/03/02 01:40:10;;;;;;;;;;;;;;;19.55;17.43;98897.19;5031994;28;19921;-86
2023/03/02 01:42:37;;;;;;;;;;;;;;;19.74;16.76;98894.19;5031599;28;19928;-86
2023/03/02 01:45:04;;;;;;;;;;;;;;;19.67;17.04;98889.34;5008050;28;19921;-86
2023/03/02 01:47:37;;;;;;;;;;;;;;;19.36;17.19;98892.63;5029135;28;20456;-86
2023/03/02 01:50:18;;;;;;;;;;;;;;;19.47;17.66;98884.38;5026402;28;19939;-87
2023/03/02 01:52:45;;;;;;;;;;;;;;;19.38;17.17;98881.09;5014549;28;19932;-86
2023/03/02 01:55:13;;;;;;;;;;;;;;;19.43;17.46;98875.19;5030863;28;19921;-86
2023/03/02 01:57:42;;;;;;;;;;;;;;;19.48;17.14;98858.13;5018569;28;20419;-87
2023/03/02 02:00:10;;;;;;;;;;;;;;;19.66;17.04;98865.44;5032712;28;19917;-87
2023/03/02 02:02:40;;;;;;;;;;;;;;;19.75;16.85;98860.34;5033658;28;19928;-87
2023/03/02 02:05:10;;;;;;;;;;;;;;;18.89;17.39;98864.63;5022817;28;19921;-87
2023/03/02 02:07:37;;;;;;;;;;;;;;;18.77;17.59;98856.53;5018094;28;20369;-86
2023/03/02 02:10:04;;;;;;;;;;;;;;;18.99;17.76;98859.22;5032072;28;19921;-87
2023/03/02 02:12:30;;;;;;;;;;;;;;;19.52;16.90;98856.16;5029564;28;19921;-87
2023/03/02 02:14:59;;;;;;;;;;;;;;;19.66;16.85;98845.94;5030929;28;19928;-87
2023/03/02 02:17:26;;;;;;;;;;;;;;;19.58;16.94;98855.41;5024088;28;19960;-87
2023/03/02 02:20:09;;;;;;;;;;;;;;;19.49;16.61;98859.72;5021959;28;19928;-86
2023/03/02 02:23:02;;;;;;;;;;;;;;;19.19;16.76;98855.03;5034773;28;19921;-87
2023/03/02 02:25:31;;;;;;;;;;;;;;;18.90;17.30;98844.00;5022882;28;19928;-87
2023/03/02 02:27:57;;;;;;;;;;;;;;;18.99;17.34;98853.66;5010302;28;19957;-87
2023/03/02 02:30:24;;;;;;;;;;;;;;;18.94;16.90;98845.63;5034619;28;20487;-87
2023/03/02 02:32:52;;;;;;;;;;;;;;;18.94;17.27;98839.25;5032948;28;19921;-87
2023/03/02 02:35:20;;;;;;;;;;;;;;;19.11;16.89;98850.56;5030064;28;19933;-87
2023/03/02 02:37:49;;;;;;;;;;;;;;;19.24;16.92;98842.75;5012063;28;20063;-87
2023/03/02 02:40:20;;;;;;;;;;;;;;;19.61;16.48;98839.91;5031525;28;20015;-87
2023/03/02 02:42:48;;;;;;;;;;;;;;;19.52;16.44;98842.25;5032500;28;19967;-87
2023/03/02 02:45:20;;;;;;;;;;;;;;;19.54;16.61;98842.66;5016117;28;20361;-87
2023/03/02 02:47:46;;;;;;;;;;;;;;;19.76;16.54;98839.66;5032787;28;19974;-87
2023/03/02 02:50:17;;;;;;;;;;;;;;;19.86;16.35;98847.28;5032211;28;19925;-87
2023/03/02 02:52:44;;;;;;;;;;;;;;;19.62;16.38;98847.09;5031010;28;19921;-87
2023/03/02 02:55:14;;;;;;;;;;;;;;;19.65;16.58;98840.78;5031697;28;19934;-87
2023/03/02 02:57:41;;;;;;;;;;;;;;;19.39;17.08;98841.75;5033932;28;20288;-87
2023/03/02 03:00:16;;;;;;;;;;;;;;;19.18;16.90;98847.09;5014929;28;19921;-87
2023/03/02 03:02:43;;;;;;;;;;;;;;;19.10;17.04;98846.19;5035000;28;19921;-87
2023/03/02 03:05:13;;;;;;;;;;;;;;;19.18;17.15;98842.28;5028578;28;20301;-87
2023/03/02 03:07:39;;;;;;;;;;;;;;;19.38;16.88;98837.34;5027104;28;19922;-87
2023/03/02 03:10:14;;;;;;;;;;;;;;;19.46;17.46;98829.88;5034940;28;19921;-88
2023/03/02 03:12:41;;;;;;;;;;;;;;;19.57;16.71;98820.41;5016635;28;19921;-87
2023/03/02 03:15:08;;;;;;;;;;;;;;;19.73;16.44;98823.72;5017377;28;19921;-87
2023/03/02 03:17:37;;;;;;;;;;;;;;;19.26;16.68;98824.47;5034136;28;20015;-87
2023/03/02 03:20:08;;;;;;;;;;;;;;;19.14;16.83;98818.38;5029655;28;19928;-88
2023/03/02 03:22:35;;;;;;;;;;;;;;;18.87;17.15;98814.16;5029590;28;19987;-88
2023/03/02 03:25:01;;;;;;;;;;;;;;;19.04;16.71;98813.53;5029816;28;19921;-87
2023/03/02 03:27:27;;;;;;;;;;;;;;;19.13;17.06;98811.25;5034243;28;19939;-88
2023/03/02 03:29:53;;;;;;;;;;;;;;;19.39;16.68;98799.97;5031893;28;20381;-88
2023/03/02 03:32:20;;;;;;;;;;;;;;;19.46;16.66;98802.03;5009130;28;19926;-88
2023/03/02 03:34:46;;;;;;;;;;;;;;;19.59;16.55;98804.09;5026010;28;19921;-88
2023/03/02 03:37:14;;;;;;;;;;;;;;;19.62;16.54;98796.97;5034521;28;19932;-88
2023/03/02 03:39:41;;;;;;;;;;;;;;;19.52;16.80;98795.69;5033841;28;19922;-89
2023/03/02 03:42:07;;;;;;;;;;;;;;;19.60;16.97;98797.38;5012725;28;19960;-88
2023/03/02 03:44:33;;;;;;;;;;;;;;;19.71;16.38;98794.66;5032074;28;19972;-88
2023/03/02 03:46:59;;;;;;;;;;;;;;;19.60;16.42;98791.00;5029886;28;19929;-88
2023/03/02 03:49:25;;;;;;;;;;;;;;;19.39;16.33;98788.84;5033568;28;19921;-88
2023/03/02 03:51:51;;;;;;;;;;;;;;;19.17;16.55;98793.38;5029116;28;19922;-88
2023/03/02 03:54:17;;;;;;;;;;;;;;;19.10;16.93;98789.72;5028383;28;20288;-89
2023/03/02 03:56:45;;;;;;;;;;;;;;;19.35;16.48;98790.75;5029215;28;19932;-88
2023/03/02 03:59:13;;;;;;;;;;;;;;;19.58;16.41;98785.00;5017217;28;20307;-89
2023/03/02 04:01:45;;;;;;;;;;;;;;;19.66;16.13;98790.22;5031470;28;19925;-89
2023/03/02 04:04:16;;;;;;;;;;;;;;;19.59;15.71;98795.75;5016341;28;19921;-88
2023/03/02 04:06:42;;;;;;;;;;;;;;;19.43;16.15;98792.44;5003705;28;19925;-89
2023/03/02 04:09:10;;;;;;;;;;;;;;;19.42;16.38;98785.25;5028189;28;20356;-89
2023/03/02 04:11:39;;;;;;;;;;;;;;;19.44;16.06;98785.66;5023996;28;20404;-88
2023/03/02 04:14:06;;;;;;;;;;;;;;;19.35;16.47;98778.84;5015732;28;19921;-88
2023/03/02 04:16:32;;;;;;;;;;;;;;;19.32;16.07;98786.75;5027325;28;19996;-89
2023/03/02 04:18:58;;;;;;;;;;;;;;;19.19;16.31;98779.88;5012662;28;19921;-89
2023/03/02 04:21:25;;;;;;;;;;;;;;;19.40;16.23;98781.25;5023508;28;19925;-88
2023/03/02 04:23:51;;;;;;;;;;;;;;;19.45;16.15;98781.72;5031870;28;19921;-89
2023/03/02 04:26:17;;;;;;;;;;;;;;;19.59;15.67;98781.81;5026384;28;19995;-89
2023/03/02 04:28:43;;;;;;;;;;;;;;;19.38;15.85;98781.66;5026358;28;20028;-88
2023/03/02 04:31:09;;;;;;;;;;;;;;;19.27;16.08;98784.34;5031046;28;20383;-89
2023/03/02 04:33:37;;;;;;;;;;;;;;;19.36;16.46;98786.81;5030641;28;19921;-89
2023/03/02 04:36:04;;;;;;;;;;;;;;;19.39;16.16;98776.91;5012817;28;20143;-89
2023/03/02 04:38:30;;;;;;;;;;;;;;;19.27;16.38;98778.78;5013832;28;20385;-89
2023/03/02 04:40:56;;;;;;;;;;;;;;;19.33;15.99;98768.88;5028726;28;19921;-89
2023/03/02 04:43:26;;;;;;;;;;;;;;;19.50;15.79;98764.66;5029771;28;19921;-89
2023/03/02 04:45:54;;;;;;;;;;;;;;;19.31;16.35;98771.25;5032383;28;19928;-89
2023/03/02 04:48:21;;;;;;;;;;;;;;;19.40;15.93;98770.13;5025580;28;19927;-89
2023/03/02 04:50:47;;;;;;;;;;;;;;;19.06;15.67;98775.00;5008107;28;20319;-89
2023/03/02 04:53:13;;;;;;;;;;;;;;;18.86;15.97;98773.56;5023961;28;19922;-89
2023/03/02 04:55:40;;;;;;;;;;;;;;;19.04;16.06;98772.56;5027442;28;19925;-89
2023/03/02 04:58:06;;;;;;;;;;;;;;;19.25;15.75;98760.84;5013176;28;20304;-88
2023/03/02 05:00:34;;;;;;;;;;;;;;;19.40;15.61;98762.56;5025851;28;20023;-89
2023/03/02 05:03:00;;;;;;;;;;;;;;;18.57;15.96;98772.50;5005992;28;20007;-89
2023/03/02 05:05:27;;;;;;;;;;;;;;;18.68;16.18;98772.59;5027295;28;19925;-90
2023/03/02 05:07:54;;;;;;;;;;;;;;;18.88;15.69;98780.38;5011890;28;19928;-90
2023/03/02 05:10:33;;;;;;;;;;;;;;;;;;;;;
2023/03/02 05:13:04;;;;;;;;;;;;;;;18.36;16.69;98786.13;5033830;28;19927;-91
2023/03/02 05:15:58;;;;;;;;;;;;;;;18.61;16.84;98788.03;5025081;28;20012;-89
2023/03/02 05:18:25;;;;;;;;;;;;;;;18.51;16.47;98785.13;5023810;28;19961;-90
2023/03/02 05:20:54;;;;;;;;;;;;;;;18.23;16.74;98779.19;5011603;28;19925;-91
2023/03/02 05:23:25;;;;;;;;;;;;;;;18.54;16.41;98782.41;5006054;28;19925;-88
2023/03/02 05:25:53;;;;;;;;;;;;;;;18.55;16.55;98792.31;5004598;28;19947;-89
2023/03/02 05:28:20;;;;;;;;;;;;;;;18.42;16.17;98792.94;5023181;28;20000;-92
2023/03/02 05:30:46;;;;;;;;;;;;;;;18.46;16.45;98791.81;5027723;28;19960;-91
2023/03/02 05:33:13;;;;;;;;;;;;;;;18.40;16.49;98796.09;5026193;28;19925;-91
2023/03/02 05:35:39;;;;;;;;;;;;;;;18.27;16.98;98791.97;5015031;28;19984;-93
2023/03/02 05:38:05;;;;;;;;;;;;;;;18.19;16.78;98790.28;5022360;28;20348;-93
2023/03/02 05:40:34;;;;;;;;;;;;;;;18.30;17.18;98793.16;5030373;28;19968;-94
2023/03/02 05:43:00;;;;;;;;;;;;;;;18.48;17.28;98789.47;5036606;28;19928;-94
2023/03/02 05:45:27;;;;;;;;;;;;;;;18.77;16.56;98790.59;5023815;28;20441;-90
2023/03/02 05:47:57;;;;;;;;;;;;;;;18.95;16.64;98796.34;5031979;28;19933;-90
2023/03/02 05:50:23;;;;;;;;;;;;;;;19.21;16.30;98790.63;5013863;28;20640;-91
2023/03/02 05:52:52;;;;;;;;;;;;;;;19.45;16.35;98792.84;5041017;28;19948;-91
2023/03/02 05:55:18;;;;;;;;;;;;;;;19.64;16.24;98794.59;5012998;28;19930;-92
2023/03/02 05:57:48;;;;;;;;;;;;;;;19.81;16.15;98805.06;5032789;28;19947;-91
2023/03/02 06:00:15;;;;;;;;;;;;;;;19.92;16.05;98797.56;5004934;28;20317;-91
2023/03/02 06:02:43;;;;;;;;;;;;;;;19.92;15.80;98798.38;5009872;28;20389;-91
2023/03/02 06:05:12;;;;;;;;;;;;;;;19.70;16.20;98795.81;5010850;28;19929;-91
2023/03/02 06:07:38;;;;;;;;;;;;;;;19.76;16.32;98802.66;5017708;28;19940;-91
2023/03/02 06:10:05;;;;;;;;;;;;;;;19.28;16.86;98801.81;5029706;28;19925;-91
2023/03/02 06:12:32;;;;;;;;;;;;;;;19.19;16.92;98810.50;5011611;28;19926;-91
2023/03/02 06:14:58;;;;;;;;;;;;;;;19.13;17.12;98808.47;5029648;28;19940;-91
2023/03/02 06:17:27;;;;;;;;;;;;;;;19.24;17.20;98814.91;5031384;28;20388;-91
2023/03/02 06:19:55;;;;;;;;;;;;;;;19.36;17.17;98814.66;5012115;28;19992;-91
2023/03/02 06:22:22;;;;;;;;;;;;;;;19.41;17.48;98819.06;5013319;28;19922;-91
2023/03/02 06:24:48;;;;;;;;;;;;;;;19.91;17.38;98816.28;5011414;28;19928;-91
2023/03/02 06:27:17;;;;;;;;;;;;;;;20.32;17.16;98816.94;5029564;28;19925;-91
2023/03/02 06:29:43;;;;;;;;;;;;;;;20.07;17.50;98815.19;5006836;28;19928;-91
2023/03/02 06:32:09;;;;;;;;;;;;;;;20.02;17.79;98819.16;5033900;28;20435;-91
2023/03/02 06:34:35;;;;;;;;;;;;;;;20.41;17.56;98811.00;5025580;28;20060;-91
2023/03/02 06:37:01;;;;;;;;;;;;;;;20.80;16.96;98803.56;5028018;28;19921;-91
2023/03/02 06:39:28;;;;;;;;;;;;;;;20.25;17.84;98810.53;5016230;28;19927;-91
2023/03/02 06:41:58;;;;;;;;;;;;;;;20.22;18.00;98806.53;5031320;28;20008;-91
2023/03/02 06:44:24;;;;;;;;;;;;;;;20.08;18.10;98808.41;5029435;28;19928;-91
2023/03/02 06:46:50;;;;;;;;;;;;;;;20.20;17.97;98819.22;5027099;28;19918;-91
2023/03/02 06:49:16;;;;;;;;;;;;;;;20.54;17.70;98815.03;5008229;28;20373;-91
2023/03/02 06:51:45;;;;;;;;;;;;;;;20.82;17.29;98815.13;5022981;28;19921;-90
2023/03/02 06:54:13;;;;;;;;;;;;;;;20.80;17.49;98817.53;5008253;28;19929;-91
2023/03/02 06:56:42;;;;;;;;;;;;;;;20.45;18.25;98817.38;5011937;28;20600;-91
2023/03/02 06:59:08;;;;;;;;;;;;;;;20.27;18.74;98816.50;5027398;28;19922;-91
2023/03/02 07:01:34;;;;;;;;;;;;;;;20.49;18.33;98818.22;5025523;28;20428;-90
2023/03/02 07:04:01;;;;;;;;;;;;;;;20.54;18.55;98813.06;5011530;28;19921;-90
2023/03/02 07:06:27;;;;;;;;;;;;;;;20.42;18.46;98821.00;5012652;28;19929;-90
2023/03/02 07:08:56;;;;;;;;;;;;;;;19.92;19.19;98823.47;5024249;28;19944;-90
2023/03/02 07:11:25;;;;;;;;;;;;;;;19.93;19.22;98825.03;5022353;28;19921;-90
2023/03/02 07:13:51;;;;;;;;;;;;;;;20.13;18.87;98822.78;5014496;28;20392;-90
2023/03/02 07:16:17;;;;;;;;;;;;;;;20.42;19.12;98821.00;5011722;28;20288;-90
2023/03/02 07:18:47;;;;;;;;;;;;;;;20.13;18.69;98822.78;5005800;28;19935;-89
2023/03/02 07:21:23;;;;;;;;;;;;;;;18.03;20.99;98816.63;5029493;28;19922;-89
2023/03/02 07:24:06;;;;;;;;;;;;;;;18.18;20.87;98827.56;5042177;28;19943;-89
2023/03/02 07:26:33;;;;;;;;;;;;;;;18.72;20.67;98829.09;5033883;28;19921;-89
2023/03/02 07:28:59;;;;;;;;;;;;;;;18.68;21.09;98831.00;5034171;28;19921;-89
2023/03/02 07:31:26;;;;;;;;;;;;;;;19.27;20.42;98822.50;5014742;28;19928;-89
2023/03/02 07:33:52;;;;;;;;;;;;;;;18.18;21.96;98827.56;5032889;28;20373;-89
2023/03/02 07:36:20;;;;;;;;;;;;;;;19.78;20.71;98819.78;5014133;28;20381;-89
2023/03/02 07:38:47;;;;;;;;;;;;;;;20.51;19.08;98815.84;5030483;28;20377;-89
2023/03/02 07:41:15;;;;;;;;;;;;;;;21.06;18.86;98811.66;5037910;28;19948;-89
2023/03/02 07:43:42;;;;;;;;;;;;;;;21.20;19.43;98808.06;5029611;28;19922;-89
2023/03/02 07:46:08;;;;;;;;;;;;;;;21.87;18.17;98805.28;5013519;28;19955;-88
2023/03/02 07:48:34;;;;;;;;;;;;;;;21.96;18.38;98800.88;5034101;28;20400;-89
2023/03/02 07:51:02;;;;;;;;;;;;;;;22.49;17.83;98802.75;5029412;28;20404;-89
2023/03/02 07:53:28;;;;;;;;;;;;;;;22.37;17.83;98803.19;5027975;28;19928;-89
2023/03/02 07:55:54;;;;;;;;;;;;;;;22.69;17.93;98803.88;5025605;28;20361;-88
2023/03/02 07:58:20;;;;;;;;;;;;;;;22.59;17.78;98801.91;5026044;28;20601;-88
2023/03/02 08:00:47;;;;;;;;;;;;;;;22.77;17.44;98801.84;5028978;28;19927;-88
2023/03/02 08:03:13;;;;;;;;;;;;;;;22.97;17.49;98800.91;5029938;28;19925;-89
2023/03/02 08:05:39;;;;;;;;;;;;;;;22.78;18.00;98797.84;5032568;28;20007;-89
2023/03/02 08:08:05;;;;;;;;;;;;;;;22.90;17.85;98809.34;5039543;28;19918;-88
2023/03/02 08:10:34;;;;;;;;;;;;;;;22.83;18.35;98801.00;5031337;28;19921;-89
2023/03/02 08:13:01;;;;;;;;;;;;;;;21.98;18.19;98803.31;5046438;28;19921;-89
2023/03/02 08:15:27;;;;;;;;;;;;;;;21.58;18.22;98795.31;5008684;28;19936;-87
2023/03/02 08:17:54;;;;;;;;;;;;;;;22.37;18.24;98803.19;5027694;28;20024;-88
2023/03/02 08:20:20;;;;;;;;;;;;;;;22.51;18.25;98795.53;5010405;28;20343;-88
2023/03/02 08:22:46;;;;;;;;;;;;;;;22.59;17.93;98801.91;5011053;28;19927;-88
2023/03/02 08:25:12;;;;;;;;;;;;;;;22.37;18.79;98798.38;5026663;28;19921;-87
2023/03/02 08:27:39;;;;;;;;;;;;;;;23.24;18.38;98795.56;5025665;28;20452;-88
2023/03/02 08:30:06;;;;;;;;;;;;;;;23.38;17.53;98795.47;5027750;28;19933;-87
2023/03/02 08:32:33;;;;;;;;;;;;;;;23.77;18.33;98793.13;5032084;28;19925;-88
2023/03/02 08:34:59;;;;;;;;;;;;;;;23.90;17.10;98793.38;5026991;28;19967;-88
2023/03/02 08:37:25;;;;;;;;;;;;;;;23.93;18.19;98798.97;5029765;28;19929;-88
2023/03/02 08:39:51;;;;;;;;;;;;;;;24.02;16.97;98790.88;5034595;28;19928;-88
2023/03/02 08:42:17;;;;;;;;;;;;;;;23.69;17.61;98785.19;5032225;28;19921;-88
2023/03/02 08:44:43;;;;;;;;;;;;;;;24.11;17.80;98787.59;5024037;28;20059;-88
2023/03/02 08:47:09;;;;;;;;;;;;;;;23.08;18.40;98790.44;5017967;28;19926;-88
2023/03/02 08:49:36;;;;;;;;;;;;;;;23.13;17.63;98780.81;5022372;28;20369;-88
2023/03/02 08:52:03;;;;;;;;;;;;;;;21.25;19.54;98788.94;5033344;28;20308;-88
2023/03/02 08:54:30;;;;;;;;;;;;;;;20.90;20.43;98783.28;5032877;28;19959;-87
2023/03/02 08:56:56;;;;;;;;;;;;;;;21.76;19.35;98787.72;5033056;28;20028;-88
2023/03/02 08:59:22;;;;;;;;;;;;;;;22.89;17.93;98781.78;5025883;28;20357;-88
2023/03/02 09:01:48;;;;;;;;;;;;;;;23.69;17.61;98783.19;5026744;28;19929;-88
2023/03/02 09:04:14;;;;;;;;;;;;;;;24.24;17.85;98771.03;5027106;28;20036;-87
2023/03/02 09:06:41;;;;;;;;;;;;;;;23.77;17.32;98767.91;5038267;28;19925;-87
2023/03/02 09:09:08;;;;;;;;;;;;;;;23.74;16.86;98765.91;5022979;28;19921;-88
2023/03/02 09:11:34;;;;;;;;;;;;;;;21.75;19.18;98772.94;5029723;28;19925;-87
2023/03/02 09:14:00;;;;;;;;;;;;;;;22.54;18.13;98766.72;5030463;28;19921;-87
2023/03/02 09:16:26;;;;;;;;;;;;;;;23.42;16.79;98757.00;5029699;28;19927;-88
2023/03/02 09:18:53;;;;;;;;;;;;;;;21.65;19.51;98767.38;5032977;28;19994;-87
2023/03/02 09:21:19;;;;;;;;;;;;;;;21.15;19.02;98772.16;5030991;28;20011;-88
2023/03/02 09:23:52;;;;;;;;;;;;;;;22.02;18.96;98760.16;5032715;28;19990;-88
2023/03/02 09:26:19;;;;;;;;;;;;;;;23.35;16.53;98766.28;5018499;28;20411;-86
2023/03/02 09:28:45;;;;;;;;;;;;;;;21.99;18.34;98771.31;5036487;28;19925;-88
2023/03/02 09:31:11;;;;;;;;;;;;;;;21.93;18.81;98762.56;5034059;28;19924;-88
2023/03/02 09:33:37;;;;;;;;;;;;;;;23.09;17.46;98763.22;5034840;28;19986;-88
2023/03/02 09:36:04;;;;;;;;;;;;;;;23.58;17.18;98760.06;5029957;28;19917;-88
2023/03/02 09:38:30;;;;;;;;;;;;;;;23.57;17.25;98755.66;5026561;28;19925;-86
2023/03/02 09:41:18;;;;;;;;;;;;;;;23.65;17.14;98759.19;5024810;28;19926;-87
2023/03/02 09:43:44;;;;;;;;;;;;;;;24.02;16.94;98757.22;5009828;28;20516;-88
2023/03/02 09:46:13;;;;;;;;;;;;;;;24.28;16.27;98757.75;5009915;28;20033;-88
2023/03/02 09:48:42;;;;;;;;;;;;;;;23.76;16.74;98749.47;5021742;28;20373;-88
2023/03/02 09:51:15;;;;;;;;;;;;;;;23.04;17.07;98755.25;5029365;28;20339;-92
2023/03/02 09:53:56;;;;;;;;;;;;;;;23.10;16.44;98751.63;5030782;28;19960;-89
2023/03/02 09:56:22;;;;;;;;;;;;;;;23.32;17.24;98747.44;5034464;28;19925;-90
2023/03/02 09:58:53;;;;;;;;;;;;;;;23.79;16.54;98743.03;5023595;28;19921;-90
2023/03/02 10:01:27;;;;;;;;;;;;;;;22.64;18.83;98746.31;5029944;28;20265;-90
2023/03/02 10:03:56;;;;;;;;;;;;;;;21.61;18.67;98742.22;5045146;28;19921;-89
2023/03/02 10:06:22;;;;;;;;;;;;;;;22.59;18.38;98737.53;5032276;28;20032;-89
2023/03/02 10:08:49;;;;;;;;;;;;;;;23.20;17.95;98733.13;5025479;28;20365;-91
2023/03/02 10:11:22;;;;;;;;;;;;;;;23.08;17.93;98730.84;5023979;28;20339;-90
2023/03/02 10:13:53;;;;;;;;;;;;;;;22.64;18.26;98734.31;5035671;28;20406;-87
2023/03/02 10:16:28;;;;;;;;;;;;;;;21.42;19.81;98730.69;5026712;28;19926;-87
2023/03/02 10:19:05;;;;;;;;;;;;;;;18.69;22.47;98732.50;5032612;28;20403;-88
2023/03/02 10:21:42;;;;;;;;;;;;;;;18.25;22.84;98737.94;5036463;28;20012;-88
2023/03/02 10:24:30;;;;;;;;;;;;;;;21.08;20.85;98724.69;5035306;28;19929;-87
2023/03/02 10:27:14;;;;;;;;;;;;;;;21.02;19.57;98724.28;5033711;28;20062;-88
2023/03/02 10:29:43;;;;;;;;;;;;;;;18.43;23.47;98725.84;5014027;28;19956;-88
2023/03/02 10:32:20;;;;;;;;;;;;;;;20.12;20.71;98731.97;5029133;28;19921;-88
2023/03/02 10:34:48;;;;;;;;;;;;;;;21.91;19.43;98713.84;5025470;28;19936;-88
2023/03/02 10:37:16;;;;;;;;;;;;;;;23.77;17.90;98699.78;5033524;28;20312;-89
2023/03/02 10:39:44;;;;;;;;;;;;;;;23.98;16.98;98708.78;5033891;28;19921;-89
2023/03/02 10:42:19;;;;;;;;;;;;;;;23.55;17.73;98699.22;5014339;28;19918;-88
2023/03/02 10:44:47;;;;;;;;;;;;;;;23.23;17.18;98698.69;5021626;28;19925;-88
2023/03/02 10:47:23;;;;;;;;;;;;;;;23.21;16.81;98699.13;5031096;28;19929;-88
2023/03/02 10:49:49;;;;;;;;;;;;;;;23.58;16.45;98703.19;5025628;28;19929;-89
2023/03/02 10:52:17;;;;;;;;;;;;;;;23.92;17.36;98690.78;5014222;28;19968;-89
2023/03/02 10:54:44;;;;;;;;;;;;;;;22.18;18.62;98686.97;5030125;28;19932;-87
2023/03/02 10:57:19;;;;;;;;;;;;;;;22.55;18.74;98687.16;5012892;28;19917;-89
2023/03/02 10:59:46;;;;;;;;;;;;;;;19.87;22.22;98687.28;5029830;28;20448;-88
2023/03/02 11:02:12;;;;;;;;;;;;;;;21.35;22.09;98676.41;5027619;28;19917;-89
2023/03/02 11:04:38;;;;;;;;;;;;;;;22.30;19.83;98674.53;5031403;28;20384;-89
2023/03/02 11:07:10;;;;;;;;;;;;;;;22.75;18.71;98678.28;5029551;28;19921;-89
2023/03/02 11:09:36;;;;;;;;;;;;;;;20.19;22.86;98675.44;5028036;28;19917;-89
2023/03/02 11:12:02;;;;;;;;;;;;;;;20.50;21.57;98669.19;5030561;28;20444;-89
2023/03/02 11:14:28;;;;;;;;;;;;;;;22.73;18.22;98655.50;5007159;28;19933;-89
2023/03/02 11:16:55;;;;;;;;;;;;;;;21.72;21.84;98661.16;5025892;28;20439;-89
2023/03/02 11:19:29;;;;;;;;;;;;;;;22.96;19.12;98655.72;5026649;28;19929;-88
2023/03/02 11:22:25;;;;;;;;;;;;;;;22.30;21.53;98647.34;5032230;28;19921;-88
2023/03/02 11:24:54;;;;;;;;;;;;;;;20.26;21.35;98656.78;4975525;28;19922;-88
2023/03/02 11:27:23;;;;;;;;;;;;;;;17.74;24.85;98665.44;5032898;28;20289;-87
2023/03/02 11:30:10;;;;;;;;;;;;;;;19.03;25.72;98651.31;5032724;28;20680;-87
2023/03/02 11:32:40;;;;;;;;;;;;;;;20.69;21.21;98638.13;5034887;28;19921;-87
2023/03/02 11:35:14;;;;;;;;;;;;;;;20.40;23.93;98634.50;5019484;28;20300;-87
2023/03/02 11:37:48;;;;;;;;;;;;;;;17.79;26.71;98640.94;5025007;28;19944;-87
2023/03/02 11:40:27;;;;;;;;;;;;;;;17.62;26.54;98632.38;5020053;28;19925;-87
2023/03/02 11:42:54;;;;;;;;;;;;;;;19.44;23.95;98626.16;5027165;28;20347;-87
2023/03/02 11:45:28;;;;;;;;;;;;;;;20.39;21.85;98634.91;5028844;28;19921;-87
2023/03/02 11:47:54;;;;;;;;;;;;;;;21.79;22.34;98610.81;5031384;28;19968;-90
2023/03/02 11:50:21;;;;;;;;;;;;;;;23.84;19.07;98610.78;5031143;28;19921;-87
2023/03/02 11:52:58;;;;;;;;;;;;;;;24.94;16.80;98601.59;5033085;28;20000;-91
2023/03/02 11:55:25;;;;;;;;;;;;;;;24.73;18.24;98604.72;5024442;28;19921;-89
2023/03/02 11:57:53;;;;;;;;;;;;;;;22.92;18.12;98612.94;5025367;28;19924;-89
2023/03/02 12:00:26;;;;;;;;;;;;;;;21.91;20.99;98613.97;5025958;28;19921;-88
2023/03/02 12:03:18;;;;;;;;;;;;;;;19.98;24.23;98615.66;5027436;28;19921;-88
2023/03/02 12:05:46;;;;;;;;;;;;;;;22.10;20.08;98603.50;5029570;28;19925;-87
2023/03/02 12:08:18;;;;;;;;;;;;;;;21.28;21.21;98603.78;5029601;28;19920;-88
2023/03/02 12:11:04;;;;;;;;;;;;;;;21.93;20.94;98597.63;5024126;28;19930;-87
2023/03/02 12:13:32;;;;;;;;;;;;;;;20.06;23.65;98594.16;5027021;28;19928;-87
2023/03/02 12:15:58;;;;;;;;;;;;;;;19.75;25.65;98603.22;5020744;28;19917;-89
2023/03/02 12:18:27;;;;;;;;;;;;;;;20.45;21.48;98592.28;5031652;28;19925;-90
2023/03/02 12:21:00;;;;;;;;;;;;;;;23.38;18.43;98587.31;5034247;28;19921;-90
2023/03/02 12:23:27;;;;;;;;;;;;;;;20.73;22.83;98591.47;5026099;28;19921;-92
2023/03/02 12:26:04;;;;;;;;;;;;;;;21.28;23.38;98586.25;5026313;28;19913;-91
2023/03/02 12:28:36;;;;;;;;;;;;;;;23.06;19.20;98581.97;5023193;28;19921;-91
2023/03/02 12:31:04;;;;;;;;;;;;;;;20.34;22.14;98582.28;5022700;28;19928;-90
2023/03/02 12:33:30;;;;;;;;;;;;;;;19.54;23.75;98584.44;5026551;28;20305;-91
2023/03/02 12:36:08;;;;;;;;;;;;;;;18.32;28.01;98590.69;5025578;28;20289;-90
2023/03/02 12:38:36;;;;;;;;;;;;;;;17.32;27.95;98585.16;5023507;28;19965;-90
2023/03/02 12:41:11;;;;;;;;;;;;;;;17.27;27.82;98586.28;5026012;28;20323;-90
2023/03/02 12:43:57;;;;;;;;;;;;;;;16.75;28.39;98571.66;5037047;28;19950;-90
2023/03/02 12:46:24;;;;;;;;;;;;;;;17.58;28.41;98590.69;5022927;28;19929;-91
2023/03/02 12:48:56;;;;;;;;;;;;;;;20.33;22.50;98573.13;5029317;28;20007;-89
2023/03/02 12:51:23;;;;;;;;;;;;;;;18.45;26.72;98572.53;5027183;28;19976;-89
2023/03/02 12:54:00;;;;;;;;;;;;;;;18.28;27.17;98568.41;5025699;28;19921;-90
2023/03/02 12:56:26;;;;;;;;;;;;;;;18.24;26.17;98567.59;5032570;28;19917;-92
2023/03/02 12:58:53;;;;;;;;;;;;;;;20.50;23.88;98561.19;5026841;28;24187;-91
2023/03/02 13:01:21;;;;;;;;;;;;;;;19.61;25.52;98562.19;5025472;28;19959;-89